createdAt,value
2023-03-26T00:00:33.653Z,98569.35
2023-03-26T00:01:36.574Z,98566.14
2023-03-26T00:02:39.808Z,98569.58
2023-03-26T00:03:44.709Z,98572.98
2023-03-26T00:04:47.774Z,98568.06
2023-03-26T00:05:54.571Z,98567.08
2023-03-26T00:07:00.859Z,98569.45
2023-03-26T00:08:06.236Z,98562.75
2023-03-26T00:09:13.927Z,98568.05
2023-03-26T00:10:17.324Z,98564.70
2023-03-26T00:11:23.313Z,98568.33
2023-03-26T00:12:27.874Z,98568.91
2023-03-26T00:13:32.809Z,98560.09
2023-03-26T00:14:38.158Z,98559.72
2023-03-26T00:15:41.639Z,98564.14
2023-03-26T00:16:45.465Z,98560.09
2023-03-26T00:17:51.188Z,98555.77
2023-03-26T00:18:55.381Z,98560.25
2023-03-26T00:20:00.346Z,98553.67
2023-03-26T00:21:05.045Z,98554.94
2023-03-26T00:22:07.601Z,98551.59
2023-03-26T00:23:11.174Z,98555.92
2023-03-26T00:24:15.845Z,98551.30
2023-03-26T00:25:20.211Z,98556.47
2023-03-26T00:26:24.821Z,98555.20
2023-03-26T00:27:29.674Z,98553.39
2023-03-26T00:28:33.193Z,98548.52
2023-03-26T00:29:36.799Z,98555.25
2023-03-26T00:30:41.904Z,98543.48
2023-03-26T00:31:46.529Z,98549.94
2023-03-26T00:32:53.753Z,98545.86
2023-03-26T00:33:57.762Z,98546.41
2023-03-26T00:35:03.205Z,98547.56
2023-03-26T00:36:13.348Z,98538.63
2023-03-26T00:37:19.406Z,98549.80
2023-03-26T00:38:24.474Z,98550.73
2023-03-26T00:39:30.774Z,98541.53
2023-03-26T00:40:37.183Z,98546.98
2023-03-26T00:41:43.456Z,98539.16
2023-03-26T00:42:48.100Z,98540.70
2023-03-26T00:43:53.582Z,98540.28
2023-03-26T00:44:58.663Z,98542.93
2023-03-26T00:46:02.890Z,98537.63
2023-03-26T00:47:06.309Z,98536.23
2023-03-26T00:48:09.838Z,98535.00
2023-03-26T00:49:18.841Z,98533.84
2023-03-26T00:50:24.455Z,98528.56
2023-03-26T00:51:29.705Z,98537.90
2023-03-26T00:52:32.781Z,98534.41
2023-03-26T00:53:37.053Z,98535.25
2023-03-26T00:54:39.721Z,98540.14
2023-03-26T00:55:44.374Z,98539.30
2023-03-26T00:56:47.219Z,98532.59
2023-03-26T00:57:51.752Z,98528.41
2023-03-26T00:58:54.472Z,98527.30
2023-03-26T00:59:57.977Z,98537.91
2023-03-26T01:01:03.638Z,98531.34
2023-03-26T01:02:08.986Z,98532.45
2023-03-26T01:03:21.887Z,98545.73
2023-03-26T01:04:28.754Z,98541.26
2023-03-26T01:05:36.913Z,98538.04
2023-03-26T01:06:42.488Z,98536.23
2023-03-26T01:07:46.463Z,98542.82
2023-03-26T01:08:52.023Z,98538.47
2023-03-26T01:09:58.869Z,98540.55
2023-03-26T01:11:12.078Z,98535.25
2023-03-26T01:12:17.893Z,98535.53
2023-03-26T01:13:22.650Z,98529.80
2023-03-26T01:14:27.511Z,98522.96
2023-03-26T01:15:31.728Z,98529.11
2023-03-26T01:16:39.744Z,98526.73
2023-03-26T01:17:45.035Z,98523.34
2023-03-26T01:18:49.564Z,98521.39
2023-03-26T01:19:56.830Z,98521.01
2023-03-26T01:21:03.137Z,98514.13
2023-03-26T01:22:10.209Z,98514.83
2023-03-26T01:23:14.762Z,98512.31
2023-03-26T01:24:21.387Z,98510.92
2023-03-26T01:25:25.819Z,98520.69
2023-03-26T01:26:31.128Z,98515.80
2023-03-26T01:27:40.585Z,98510.39
2023-03-26T01:28:44.089Z,98511.33
2023-03-26T01:30:01.955Z,98509.93
2023-03-26T01:31:08.226Z,98512.27
2023-03-26T01:32:19.102Z,98509.38
2023-03-26T01:33:31.534Z,98508.86
2023-03-26T01:34:36.913Z,98508.68
2023-03-26T01:35:46.934Z,98512.45
2023-03-26T01:36:53.849Z,98510.07
2023-03-26T01:38:16.572Z,98511.60
2023-03-26T01:39:24.880Z,98511.89
2023-03-26T01:40:38.205Z,98511.28
2023-03-26T01:41:56.856Z,98516.59
2023-03-26T01:43:07.883Z,98513.80
2023-03-26T01:44:16.950Z,98503.33
2023-03-26T01:45:27.114Z,98508.39
2023-03-26T01:46:35.540Z,98507.56
2023-03-26T01:47:39.998Z,98505.31
2023-03-26T01:48:46.724Z,98512.27
2023-03-26T01:49:49.893Z,98511.28
2023-03-26T01:50:54.934Z,98507.09
2023-03-26T01:51:59.526Z,98511.14
2023-03-26T01:53:02.942Z,98512.97
2023-03-26T01:54:08.002Z,98507.00
2023-03-26T01:55:13.492Z,98505.98
2023-03-26T01:56:19.810Z,98508.77
2023-03-26T01:57:35.132Z,98503.02
2023-03-26T01:58:41.859Z,98504.23
2023-03-26T01:59:57.680Z,98507.16
2023-03-26T02:01:04.066Z,98507.53
2023-03-26T02:02:14.996Z,98505.77
2023-03-26T02:03:21.197Z,98494.31
2023-03-26T02:04:34.273Z,98496.27
2023-03-26T02:05:39.659Z,98508.33
2023-03-26T02:06:47.451Z,98498.50
2023-03-26T02:07:57.636Z,98494.59
2023-03-26T02:09:03.329Z,98500.20
2023-03-26T02:10:09.656Z,98494.88
2023-03-26T02:11:16.757Z,98491.23
2023-03-26T02:12:22.104Z,98487.96
2023-03-26T02:13:26.224Z,98489.49
2023-03-26T02:14:29.211Z,98483.81
2023-03-26T02:15:35.051Z,98494.25
2023-03-26T02:16:39.849Z,98490.53
2023-03-26T02:17:43.917Z,98492.98
2023-03-26T02:18:50.339Z,98489.46
2023-03-26T02:19:55.488Z,98491.65
2023-03-26T02:20:58.909Z,98498.34
2023-03-26T02:22:02.426Z,98489.25
2023-03-26T02:23:09.478Z,98488.81
2023-03-26T02:24:12.992Z,98487.50
2023-03-26T02:25:18.360Z,98485.31
2023-03-26T02:26:21.143Z,98491.47
2023-03-26T02:27:31.372Z,98493.95
2023-03-26T02:28:35.353Z,98502.91
2023-03-26T02:29:39.892Z,98498.97
2023-03-26T02:30:46.673Z,98499.44
2023-03-26T02:31:51.532Z,98503.45
2023-03-26T02:32:54.934Z,98502.31
2023-03-26T02:34:00.169Z,98502.02
2023-03-26T02:35:06.314Z,98495.58
2023-03-26T02:36:12.494Z,98492.45
2023-03-26T02:37:19.505Z,98496.78
2023-03-26T02:38:27.672Z,98502.56
2023-03-26T02:39:30.576Z,98501.95
2023-03-26T02:40:35.743Z,98500.13
2023-03-26T02:41:39.769Z,98499.77
2023-03-26T02:42:44.108Z,98500.89
2023-03-26T02:43:47.949Z,98498.20
2023-03-26T02:44:52.586Z,98498.82
2023-03-26T02:45:57.389Z,98503.08
2023-03-26T02:47:10.965Z,98499.07
2023-03-26T02:48:31.193Z,98497.43
2023-03-26T02:49:38.993Z,98498.13
2023-03-26T02:50:43.739Z,98499.44
2023-03-26T02:51:57.542Z,98502.86
2023-03-26T02:53:03.026Z,98504.02
2023-03-26T02:54:08.047Z,98503.19
2023-03-26T02:55:14.361Z,98504.70
2023-03-26T02:56:20.695Z,98502.05
2023-03-26T02:57:32.032Z,98501.22
2023-03-26T02:58:36.265Z,98500.54
2023-03-26T02:59:39.598Z,98500.99
2023-03-26T03:00:46.901Z,98503.11
2023-03-26T03:01:55.109Z,98505.23
2023-03-26T03:02:59.959Z,98509.95
2023-03-26T03:04:08.313Z,98510.93
2023-03-26T03:05:12.538Z,98523.63
2023-03-26T03:06:19.393Z,98521.52
2023-03-26T03:07:25.617Z,98527.81
2023-03-26T03:08:29.015Z,98527.81
2023-03-26T03:09:37.010Z,98526.44
2023-03-26T03:11:00.738Z,98537.77
2023-03-26T03:12:08.984Z,98536.20
2023-03-26T03:13:12.384Z,98539.02
2023-03-26T03:14:18.399Z,98547.27
2023-03-26T03:15:24.727Z,98554.48
2023-03-26T03:16:28.357Z,98549.09
2023-03-26T03:17:33.094Z,98549.70
2023-03-26T03:18:37.030Z,98564.81
2023-03-26T03:19:40.936Z,98573.56
2023-03-26T03:20:44.783Z,98569.17
2023-03-26T03:21:48.153Z,98571.31
2023-03-26T03:22:51.974Z,98576.52
2023-03-26T03:23:56.510Z,98576.66
2023-03-26T03:25:02.017Z,98581.59
2023-03-26T03:26:07.607Z,98585.80
2023-03-26T03:27:12.391Z,98594.31
2023-03-26T03:28:20.675Z,98597.53
2023-03-26T03:29:25.528Z,98602.05
2023-03-26T03:30:31.332Z,98602.34
2023-03-26T03:31:45.270Z,98612.07
2023-03-26T03:32:51.558Z,98617.95
2023-03-26T03:33:56.160Z,98621.06
2023-03-26T03:35:02.176Z,98619.48
2023-03-26T03:36:20.595Z,98626.19
2023-03-26T03:37:18.442Z,98623.95
2023-03-26T03:38:25.019Z,98622.50
2023-03-26T03:39:31.934Z,98620.53
2023-03-26T03:40:34.752Z,98623.75
2023-03-26T03:41:38.079Z,98619.84
2023-03-26T03:42:42.911Z,98629.89
2023-03-26T03:43:46.853Z,98622.08
2023-03-26T03:44:54.905Z,98627.23
2023-03-26T03:46:03.809Z,98624.17
2023-03-26T03:47:09.874Z,98628.36
2023-03-26T03:48:14.529Z,98622.52
2023-03-26T03:49:20.029Z,98626.69
2023-03-26T03:50:24.778Z,98625.28
2023-03-26T03:51:39.145Z,98637.86
2023-03-26T03:52:45.473Z,98639.68
2023-03-26T03:53:51.032Z,98641.22
2023-03-26T03:54:57.795Z,98652.11
2023-03-26T03:56:06.261Z,98649.32
2023-03-26T03:57:17.332Z,98649.18
2023-03-26T03:58:25.041Z,98649.32
2023-03-26T03:59:28.118Z,98645.41
2023-03-26T04:00:31.717Z,98638.98
2023-03-26T04:01:38.483Z,98631.45
2023-03-26T04:02:46.841Z,98643.45
2023-03-26T04:03:50.060Z,98645.55
2023-03-26T04:04:53.908Z,98651.53
2023-03-26T04:05:58.329Z,98646.04
2023-03-26T04:07:02.565Z,98646.55
2023-03-26T04:08:08.707Z,98646.97
2023-03-26T04:09:13.737Z,98654.38
2023-03-26T04:10:17.449Z,98649.39
2023-03-26T04:11:31.471Z,98656.52
2023-03-26T04:12:56.690Z,98658.76
2023-03-26T04:15:12.233Z,98664.07
2023-03-26T04:16:17.022Z,98663.09
2023-03-26T04:17:22.495Z,98661.14
2023-03-26T04:18:29.242Z,98668.27
2023-03-26T04:19:34.309Z,98663.48
2023-03-26T04:20:42.555Z,98666.31
2023-03-26T04:21:46.108Z,98669.80
2023-03-26T04:22:50.034Z,98674.28
2023-03-26T04:23:53.849Z,98669.80
2023-03-26T04:25:04.252Z,98676.23
2023-03-26T04:26:12.999Z,98671.90
2023-03-26T04:27:26.122Z,98674.70
2023-03-26T04:28:31.466Z,98675.29
2023-03-26T04:29:51.459Z,98677.49
2023-03-26T04:31:01.275Z,98682.52
2023-03-26T04:32:14.472Z,98677.49
2023-03-26T04:33:17.979Z,98681.83
2023-03-26T04:34:24.954Z,98682.95
2023-03-26T04:35:34.865Z,98685.18
2023-03-26T04:36:45.968Z,98683.92
2023-03-26T04:37:49.514Z,98681.97
2023-03-26T04:38:55.454Z,98685.88
2023-03-26T04:40:00.539Z,98690.77
2023-03-26T04:41:07.079Z,98690.04
2023-03-26T04:42:21.014Z,98686.54
2023-03-26T04:43:28.515Z,98701.78
2023-03-26T04:44:35.544Z,98706.22
2023-03-26T04:45:42.907Z,98706.92
2023-03-26T04:46:45.628Z,98702.80
2023-03-26T04:47:52.682Z,98707.09
2023-03-26T04:48:57.080Z,98712.41
2023-03-26T04:50:01.533Z,98709.84
2023-03-26T04:51:07.752Z,98709.15
2023-03-26T04:52:12.803Z,98712.37
2023-03-26T04:53:19.140Z,98715.17
2023-03-26T04:54:25.570Z,98726.17
2023-03-26T04:55:37.902Z,98723.00
2023-03-26T04:56:56.838Z,98728.13
2023-03-26T04:58:05.097Z,98720.44
2023-03-26T04:59:15.442Z,98726.55
2023-03-26T05:00:19.754Z,98730.78
2023-03-26T05:01:25.172Z,98730.69
2023-03-26T05:02:29.490Z,98731.56
2023-03-26T05:03:33.713Z,98730.47
2023-03-26T05:04:41.860Z,98739.55
2023-03-26T05:05:45.636Z,98738.44
2023-03-26T05:06:51.335Z,98741.63
2023-03-26T05:07:56.815Z,98737.30
2023-03-26T05:09:03.260Z,98730.83
2023-03-26T05:10:08.837Z,98742.16
2023-03-26T05:11:14.234Z,98745.69
2023-03-26T05:12:16.906Z,98743.87
2023-03-26T05:13:30.745Z,98746.77
2023-03-26T05:14:36.484Z,98744.78
2023-03-26T05:15:41.505Z,98753.48
2023-03-26T05:16:50.868Z,98753.87
2023-03-26T05:17:56.400Z,98754.48
2023-03-26T05:19:14.141Z,98756.75
2023-03-26T05:20:24.158Z,98761.23
2023-03-26T05:21:27.975Z,98756.75
2023-03-26T05:22:30.645Z,98756.78
2023-03-26T05:23:44.167Z,98760.55
2023-03-26T05:24:48.609Z,98769.83
2023-03-26T05:25:53.946Z,98775.22
2023-03-26T05:27:00.005Z,98789.29
2023-03-26T05:28:07.204Z,98788.15
2023-03-26T05:29:15.683Z,98788.94
2023-03-26T05:30:21.757Z,98787.01
2023-03-26T05:31:29.184Z,98796.45
2023-03-26T05:32:32.995Z,98796.35
2023-03-26T05:33:36.673Z,98795.73
2023-03-26T05:34:45.759Z,98791.01
2023-03-26T05:35:51.731Z,98787.21
2023-03-26T05:36:55.156Z,98783.91
2023-03-26T05:38:18.102Z,98770.06
2023-03-26T05:39:23.417Z,98767.45
2023-03-26T05:40:41.511Z,98777.19
2023-03-26T05:41:44.904Z,98787.89
2023-03-26T05:42:51.028Z,98780.07
2023-03-26T05:44:14.223Z,98777.58
2023-03-26T05:45:17.765Z,98767.06
2023-03-26T05:46:22.675Z,98769.05
2023-03-26T05:47:27.736Z,98766.51
2023-03-26T05:48:31.339Z,98760.20
2023-03-26T05:49:35.143Z,98764.59
2023-03-26T05:50:39.073Z,98764.67
2023-03-26T05:51:44.450Z,98768.57
2023-03-26T05:53:06.235Z,98768.68
2023-03-26T05:54:28.745Z,98763.70
2023-03-26T05:57:05.352Z,98765.39
2023-03-26T05:58:28.865Z,98769.58
2023-03-26T05:59:35.226Z,98767.69
2023-03-26T06:00:58.646Z,98773.00
2023-03-26T06:02:09.377Z,98774.95
2023-03-26T06:03:27.992Z,98784.83
2023-03-26T06:04:46.730Z,98776.03
2023-03-26T06:05:52.884Z,98780.17
2023-03-26T06:07:00.150Z,98785.98
2023-03-26T06:08:03.238Z,98780.52
2023-03-26T06:09:08.282Z,98784.59
2023-03-26T06:10:18.061Z,98787.89
2023-03-26T06:11:19.582Z,98788.73
2023-03-26T06:12:25.409Z,98796.66
2023-03-26T06:13:29.537Z,98805.66
2023-03-26T06:14:33.354Z,98801.23
2023-03-26T06:15:41.907Z,98801.70
2023-03-26T06:17:04.285Z,98807.39
2023-03-26T06:18:09.529Z,98804.74
2023-03-26T06:19:24.140Z,98802.53
2023-03-26T06:20:37.972Z,98802.45
2023-03-26T06:21:43.475Z,98805.63
2023-03-26T06:22:48.859Z,98795.98
2023-03-26T06:23:54.871Z,98805.83
2023-03-26T06:25:19.383Z,98806.33
2023-03-26T06:26:24.531Z,98805.98
2023-03-26T06:27:32.650Z,98798.48
2023-03-26T06:28:41.168Z,98810.04
2023-03-26T06:29:49.912Z,98810.55
2023-03-26T06:30:55.388Z,98807.72
2023-03-26T06:32:19.811Z,98803.73
2023-03-26T06:33:21.106Z,98805.59
2023-03-26T06:34:28.829Z,98806.25
2023-03-26T06:35:31.902Z,98805.08
2023-03-26T06:36:36.306Z,98805.55
2023-03-26T06:37:39.917Z,98810.30
2023-03-26T06:38:43.647Z,98817.20
2023-03-26T06:39:46.509Z,98823.94
2023-03-26T06:40:55.716Z,98827.72
2023-03-26T06:42:03.740Z,98830.41
2023-03-26T06:43:13.944Z,98830.28
2023-03-26T06:44:19.644Z,98823.38
2023-03-26T06:45:36.099Z,98820.27
2023-03-26T06:46:44.211Z,98824.08
2023-03-26T06:48:06.961Z,98822.81
2023-03-26T06:50:27.095Z,98833.22
2023-03-26T06:51:43.433Z,98839.69
2023-03-26T06:53:05.320Z,98833.22
2023-03-26T06:54:11.437Z,98836.50
2023-03-26T06:55:19.224Z,98830.88
2023-03-26T06:56:41.956Z,98839.50
2023-03-26T06:57:54.146Z,98851.08
2023-03-26T06:59:08.717Z,98857.11
2023-03-26T07:01:36.215Z,98853.14
2023-03-26T07:02:58.303Z,98855.25
2023-03-26T07:04:21.387Z,98844.81
2023-03-26T07:05:43.517Z,98852.42
2023-03-26T07:07:07.000Z,98867.08
2023-03-26T07:09:24.021Z,98889.74
2023-03-26T07:10:35.244Z,98895.78
2023-03-26T07:11:41.491Z,98901.77
2023-03-26T07:13:05.025Z,98899.20
2023-03-26T07:14:26.108Z,98906.48
2023-03-26T07:15:43.811Z,98902.18
2023-03-26T07:16:49.535Z,98901.30
2023-03-26T07:18:08.674Z,98897.58
2023-03-26T07:19:13.847Z,98901.06
2023-03-26T07:20:19.969Z,98901.42
2023-03-26T07:21:23.870Z,98902.94
2023-03-26T07:22:27.928Z,98892.91
2023-03-26T07:23:45.327Z,98890.78
2023-03-26T07:25:00.381Z,98892.97
2023-03-26T07:26:22.923Z,98896.42
2023-03-26T07:27:33.226Z,98908.08
2023-03-26T07:28:41.377Z,98894.21
2023-03-26T07:30:04.358Z,98900.28
2023-03-26T07:31:27.705Z,98889.81
2023-03-26T07:32:47.114Z,98890.38
2023-03-26T07:34:08.137Z,98888.06
2023-03-26T07:35:18.354Z,98890.28
2023-03-26T07:36:37.082Z,98896.28
2023-03-26T07:37:44.869Z,98894.27
2023-03-26T07:39:17.006Z,98892.67
2023-03-26T07:40:41.895Z,98891.69
2023-03-26T07:42:15.603Z,98902.18
2023-03-26T07:43:55.347Z,98898.59
2023-03-26T07:45:15.863Z,98912.55
2023-03-26T07:46:40.952Z,98915.77
2023-03-26T07:47:50.565Z,98915.80
2023-03-26T07:48:59.272Z,98916.63
2023-03-26T07:50:12.377Z,98906.67
2023-03-26T07:51:20.603Z,98923.20
2023-03-26T07:52:37.085Z,98910.21
2023-03-26T07:53:49.562Z,98925.34
2023-03-26T07:55:16.565Z,98934.27
2023-03-26T07:56:46.786Z,98926.77
2023-03-26T07:58:11.317Z,98924.73
2023-03-26T07:59:54.008Z,98929.11
2023-03-26T08:01:18.160Z,98934.79
2023-03-26T08:02:29.321Z,98924.91
2023-03-26T08:03:39.650Z,98923.06
2023-03-26T08:05:03.837Z,98919.07
2023-03-26T08:06:26.107Z,98927.42
2023-03-26T08:07:55.391Z,98938.03
2023-03-26T08:09:02.546Z,98920.18
2023-03-26T08:10:18.880Z,98935.28
2023-03-26T08:11:28.680Z,98931.36
2023-03-26T08:12:42.914Z,98943.22
2023-03-26T08:39:52.581Z,98900.04
2023-03-26T08:40:58.030Z,98895.31
2023-03-26T08:42:17.806Z,98906.80
2023-03-26T08:43:38.081Z,98907.27
2023-03-26T08:44:59.006Z,98901.84
2023-03-26T08:46:13.236Z,98895.29
2023-03-26T08:47:38.495Z,98897.42
2023-03-26T08:48:48.871Z,98892.88
2023-03-26T08:50:11.562Z,98878.06
2023-03-26T08:51:35.051Z,98884.52
2023-03-26T08:52:42.921Z,98881.45
2023-03-26T08:54:01.944Z,98885.78
2023-03-26T08:55:10.531Z,98873.76
2023-03-26T08:56:28.466Z,98888.16
2023-03-26T08:57:47.960Z,98893.65
2023-03-26T08:58:52.794Z,98882.01
2023-03-26T09:00:17.045Z,98881.59
2023-03-26T09:01:27.436Z,98879.58
2023-03-26T09:02:48.786Z,98892.36
2023-03-26T09:04:00.553Z,98891.85
2023-03-26T09:05:07.186Z,98884.80
2023-03-26T09:06:30.004Z,98890.52
2023-03-26T09:07:36.946Z,98888.13
2023-03-26T09:08:53.661Z,98889.63
2023-03-26T09:10:12.460Z,98879.92
2023-03-26T09:11:27.453Z,98883.41
2023-03-26T09:12:50.269Z,98875.00
2023-03-26T09:14:11.748Z,98882.80
2023-03-26T09:15:22.671Z,98881.52
2023-03-26T09:16:42.907Z,98881.32
2023-03-26T09:18:05.247Z,98875.70
2023-03-26T09:19:14.238Z,98874.81
2023-03-26T09:20:18.760Z,98880.23
2023-03-26T09:21:36.878Z,98870.31
2023-03-26T09:23:00.383Z,98881.64
2023-03-26T09:24:08.782Z,98866.39
2023-03-26T09:25:33.346Z,98880.08
2023-03-26T09:26:59.036Z,98876.73
2023-03-26T09:28:11.417Z,98875.07
2023-03-26T09:29:33.213Z,98869.92
2023-03-26T09:30:54.312Z,98881.84
2023-03-26T09:32:10.190Z,98871.73
2023-03-26T09:33:21.432Z,98877.65
2023-03-26T09:34:32.131Z,98880.06
2023-03-26T09:35:58.322Z,98875.99
2023-03-26T09:37:15.420Z,98868.59
2023-03-26T09:38:19.626Z,98875.72
2023-03-26T09:39:34.757Z,98863.41
2023-03-26T09:40:45.447Z,98871.12
2023-03-26T09:41:53.024Z,98865.50
2023-03-26T09:43:05.403Z,98865.50
2023-03-26T09:44:14.008Z,98871.19
2023-03-26T09:45:24.212Z,98874.06
2023-03-26T09:46:29.283Z,98860.52
2023-03-26T09:47:35.576Z,98869.82
2023-03-26T09:48:44.126Z,98867.66
2023-03-26T09:49:49.830Z,98870.44
2023-03-26T09:51:03.565Z,98865.64
2023-03-26T09:52:26.692Z,98867.39
2023-03-26T09:53:35.436Z,98862.11
2023-03-26T09:54:48.602Z,98864.67
2023-03-26T09:56:12.140Z,98865.80
2023-03-26T09:57:18.879Z,98870.02
2023-03-26T09:58:39.588Z,98865.72
2023-03-26T09:59:47.585Z,98862.47
2023-03-26T10:00:53.966Z,98861.75
2023-03-26T10:01:58.685Z,98856.81
2023-03-26T10:03:16.234Z,98856.07
2023-03-26T10:04:27.145Z,98858.48
2023-03-26T10:05:41.835Z,98852.38
2023-03-26T10:07:03.848Z,98851.27
2023-03-26T10:08:21.250Z,98844.69
2023-03-26T10:09:29.109Z,98846.52
2023-03-26T10:10:46.670Z,98843.56
2023-03-26T10:12:02.318Z,98837.72
2023-03-26T10:13:15.003Z,98847.52
2023-03-26T10:14:19.830Z,98852.14
2023-03-26T10:15:38.382Z,98847.59
2023-03-26T10:16:48.402Z,98856.81
2023-03-26T10:18:01.851Z,98853.68
2023-03-26T10:19:23.992Z,98855.44
2023-03-26T10:20:30.198Z,98860.25
2023-03-26T10:21:48.999Z,98855.73
2023-03-26T10:23:01.986Z,98861.47
2023-03-26T10:24:06.945Z,98862.30
2023-03-26T10:25:21.716Z,98854.50
2023-03-26T10:26:39.026Z,98856.24
2023-03-26T10:28:00.792Z,98856.40
2023-03-26T10:29:06.607Z,98851.16
2023-03-26T10:30:21.068Z,98842.97
2023-03-26T10:31:26.496Z,98844.22
2023-03-26T10:32:35.582Z,98839.42
2023-03-26T10:33:44.021Z,98844.67
2023-03-26T10:34:48.869Z,98849.83
2023-03-26T10:36:14.308Z,98843.98
2023-03-26T10:37:22.199Z,98851.41
2023-03-26T10:38:36.887Z,98850.23
2023-03-26T10:40:01.209Z,98854.88
2023-03-26T10:41:10.227Z,98851.00
2023-03-26T10:42:25.116Z,98844.48
2023-03-26T10:43:33.294Z,98836.78
2023-03-26T10:44:58.235Z,98833.75
2023-03-26T10:46:13.304Z,98839.14
2023-03-26T10:47:37.673Z,98838.17
2023-03-26T10:48:52.204Z,98838.20
2023-03-26T10:50:23.029Z,98838.03
2023-03-26T10:51:41.917Z,98844.91
2023-03-26T10:52:47.974Z,98833.63
2023-03-26T10:53:55.209Z,98836.66
2023-03-26T10:55:03.400Z,98836.48
2023-03-26T10:56:12.558Z,98833.84
2023-03-26T10:57:18.065Z,98834.59
2023-03-26T10:58:23.592Z,98837.25
2023-03-26T10:59:30.413Z,98830.41
2023-03-26T11:00:35.665Z,98833.35
2023-03-26T11:01:43.401Z,98841.45
2023-03-26T11:03:05.904Z,98831.77
2023-03-26T11:04:30.695Z,98820.27
2023-03-26T11:05:35.861Z,98821.34
2023-03-26T11:06:45.630Z,98814.66
2023-03-26T11:08:11.274Z,98816.19
2023-03-26T11:09:22.516Z,98803.52
2023-03-26T11:10:28.945Z,98807.83
2023-03-26T11:11:44.234Z,98823.38
2023-03-26T11:12:49.296Z,98810.16
2023-03-26T11:13:53.386Z,98811.52
2023-03-26T11:14:58.017Z,98809.52
2023-03-26T11:16:09.078Z,98798.46
2023-03-26T11:17:40.596Z,98808.66
2023-03-26T11:18:34.946Z,98819.36
2023-03-26T11:19:42.853Z,98813.67
2023-03-26T11:20:53.456Z,98811.84
2023-03-26T11:22:11.778Z,98812.02
2023-03-26T11:23:20.080Z,98801.64
2023-03-26T11:24:42.806Z,98802.65
2023-03-26T11:26:03.344Z,98801.14
2023-03-26T11:27:27.436Z,98807.00
2023-03-26T11:28:31.690Z,98803.81
2023-03-26T11:29:42.581Z,98802.13
2023-03-26T11:30:52.797Z,98798.47
2023-03-26T11:32:07.472Z,98799.44
2023-03-26T11:33:14.089Z,98805.09
2023-03-26T11:34:22.909Z,98803.02
2023-03-26T11:35:40.499Z,98802.13
2023-03-26T11:36:39.778Z,98796.28
2023-03-26T11:37:45.318Z,98799.28
2023-03-26T11:38:50.646Z,98806.31
2023-03-26T11:39:58.362Z,98808.32
2023-03-26T11:41:02.978Z,98803.01
2023-03-26T11:42:24.855Z,98802.95
2023-03-26T11:43:35.235Z,98804.13
2023-03-26T11:44:39.998Z,98795.25
2023-03-26T11:45:45.301Z,98803.06
2023-03-26T11:46:50.494Z,98795.70
2023-03-26T11:47:55.213Z,98801.62
2023-03-26T11:49:03.506Z,98801.68
2023-03-26T11:50:07.859Z,98797.09
2023-03-26T11:51:13.263Z,98801.34
2023-03-26T11:52:17.390Z,98796.42
2023-03-26T11:53:22.250Z,98808.94
2023-03-26T11:54:25.652Z,98797.04
2023-03-26T11:55:29.471Z,98800.16
2023-03-26T11:56:35.152Z,98797.88
2023-03-26T11:57:42.276Z,98802.23
2023-03-26T11:58:52.615Z,98804.08
2023-03-26T12:00:01.662Z,98802.07
2023-03-26T12:01:08.848Z,98800.33
2023-03-26T12:02:13.203Z,98807.53
2023-03-26T12:03:16.899Z,98806.03
2023-03-26T12:04:39.658Z,98805.03
2023-03-26T12:05:50.503Z,98807.53
2023-03-26T12:06:57.826Z,98804.08
2023-03-26T12:08:03.629Z,98800.44
2023-03-26T12:09:11.770Z,98799.84
2023-03-26T12:10:23.958Z,98796.17
2023-03-26T12:11:34.674Z,98797.95
2023-03-26T12:12:39.523Z,98781.77
2023-03-26T12:13:47.113Z,98782.29
2023-03-26T12:14:53.965Z,98780.95
2023-03-26T12:16:02.199Z,98778.81
2023-03-26T12:17:10.365Z,98788.68
2023-03-26T12:18:21.608Z,98792.89
2023-03-26T12:19:25.725Z,98788.19
2023-03-26T12:20:32.230Z,98790.22
2023-03-26T12:21:47.063Z,98795.13
2023-03-26T12:22:52.546Z,98789.95
2023-03-26T12:24:00.607Z,98792.36
2023-03-26T12:25:12.109Z,98798.08
2023-03-26T12:26:16.730Z,98790.92
2023-03-26T12:27:22.949Z,98795.13
2023-03-26T12:28:27.147Z,98795.08
2023-03-26T12:29:36.242Z,98797.80
2023-03-26T12:30:41.933Z,98799.82
2023-03-26T12:31:53.590Z,98801.21
2023-03-26T12:33:06.230Z,98794.52
2023-03-26T12:34:16.291Z,98787.13
2023-03-26T12:35:22.097Z,98782.52
2023-03-26T12:36:31.847Z,98779.34
2023-03-26T12:37:38.722Z,98773.73
2023-03-26T12:38:43.869Z,98774.16
2023-03-26T12:40:08.168Z,98778.86
2023-03-26T12:40:53.692Z,98774.02
2023-03-26T12:44:45.138Z,98775.41
2023-03-26T12:44:53.578Z,98772.41
2023-03-26T12:44:54.131Z,98766.98
2023-03-26T12:45:31.644Z,98765.61
2023-03-26T12:47:55.587Z,98763.27
2023-03-26T12:47:58.146Z,98761.34
2023-03-26T12:48:56.326Z,98761.77
2023-03-26T12:50:00.074Z,98751.81
2023-03-26T12:51:11.178Z,98753.97
2023-03-26T12:52:31.820Z,98755.81
2023-03-26T12:53:53.931Z,98758.17
2023-03-26T12:55:12.008Z,98762.70
2023-03-26T12:56:16.312Z,98755.47
2023-03-26T12:57:27.460Z,98756.47
2023-03-26T12:58:50.858Z,98768.26
2023-03-26T12:59:59.610Z,98766.09
2023-03-26T13:01:16.952Z,98757.78
2023-03-26T13:02:23.027Z,98757.48
2023-03-26T13:03:30.946Z,98763.55
2023-03-26T13:04:39.533Z,98760.46
2023-03-26T13:06:03.185Z,98765.25
2023-03-26T13:07:09.631Z,98760.63
2023-03-26T13:08:29.831Z,98764.47
2023-03-26T13:09:34.878Z,98763.75
2023-03-26T13:10:46.135Z,98762.12
2023-03-26T13:11:57.494Z,98760.41
2023-03-26T13:13:03.918Z,98765.25
2023-03-26T13:14:15.150Z,98761.63
2023-03-26T13:15:20.543Z,98759.58
2023-03-26T13:16:31.809Z,98751.55
2023-03-26T13:17:40.760Z,98763.14
2023-03-26T13:18:52.569Z,98756.78
2023-03-26T13:19:59.613Z,98754.94
2023-03-26T13:21:24.490Z,98755.81
2023-03-26T13:22:46.741Z,98750.00
2023-03-26T13:23:52.249Z,98746.48
2023-03-26T13:24:56.811Z,98746.79
2023-03-26T13:26:07.534Z,98740.61
2023-03-26T13:27:24.059Z,98744.98
2023-03-26T13:28:42.850Z,98742.61
2023-03-26T13:29:57.953Z,98737.41
2023-03-26T13:31:05.944Z,98746.44
2023-03-26T13:32:23.343Z,98742.72
2023-03-26T13:33:27.754Z,98747.86
2023-03-26T13:34:40.244Z,98742.33
2023-03-26T13:36:06.565Z,98733.79
2023-03-26T13:37:05.360Z,98739.98
2023-03-26T13:38:11.012Z,98739.98
2023-03-26T13:39:19.116Z,98739.16
2023-03-26T13:40:42.740Z,98746.39
2023-03-26T13:41:47.434Z,98743.94
2023-03-26T13:43:03.788Z,98745.73
2023-03-26T13:44:12.405Z,98750.59
2023-03-26T13:45:23.175Z,98749.30
2023-03-26T13:46:37.420Z,98749.99
2023-03-26T13:47:45.484Z,98753.17
2023-03-26T13:48:51.417Z,98746.87
2023-03-26T13:49:58.213Z,98763.23
2023-03-26T13:51:10.087Z,98760.70
2023-03-26T13:52:15.363Z,98771.41
2023-03-26T13:53:24.099Z,98773.08
2023-03-26T13:54:36.698Z,98770.91
2023-03-26T13:55:47.467Z,98777.58
2023-03-26T13:56:53.756Z,98779.57
2023-03-26T13:58:01.613Z,98780.73
2023-03-26T13:59:10.146Z,98789.07
2023-03-26T14:00:20.176Z,98797.05
2023-03-26T14:01:26.659Z,98792.55
2023-03-26T14:02:32.137Z,98786.88
2023-03-26T14:03:43.837Z,98781.22
2023-03-26T14:04:50.433Z,98785.08
2023-03-26T14:05:56.230Z,98785.59
2023-03-26T14:07:01.927Z,98777.73
2023-03-26T14:08:10.157Z,98778.59
2023-03-26T14:09:18.021Z,98781.09
2023-03-26T14:10:22.790Z,98784.46
2023-03-26T14:11:33.384Z,98785.62